Time;durP1;ratioP1;P1;durP2;ratioP2;P2;SDS_P1;SDS_P2;PMS_P1;PMS_P2;Temp;Humidity;BMP_temperature;BMP_pressure;BME280_temperature;BME280_humidity;BME280_pressure;Samples;Min_cycle;Max_cycle;Signal;HPM_P1;HPM_P2
2022/10/07 00:17:02;;;;;;;0.40;0.40;;;;;;;;;;6270390;22;20008;-90
2022/10/07 00:19:57;;;;;;;0.30;0.30;;;;;;;;;;6269712;23;20039;-92
2022/10/07 03:53:20;;;;;;;0.28;0.28;;;;;;;;;;6278434;22;20018;-90
2022/10/07 03:59:05;;;;;;;0.30;0.30;;;;;;;;;;6311300;22;20106;-88
2022/10/07 04:01:33;;;;;;;0.35;0.35;;;;;;;;;;6276562;22;20031;-89
2022/10/07 04:04:26;;;;;;;0.32;0.32;;;;;;;;;;6271861;22;20006;-90
2022/10/07 04:07:11;;;;;;;0.38;0.38;;;;;;;;;;6240165;23;20048;-89
2022/10/07 04:10:10;;;;;;;0.30;0.30;;;;;;;;;;6279598;22;20088;-90
2022/10/07 04:12:50;;;;;;;0.30;0.30;;;;;;;;;;6272152;22;20051;-89
2022/10/07 04:19:06;;;;;;;0.30;0.30;;;;;;;;;;6212197;23;20004;-89
2022/10/07 04:22:11;;;;;;;0.40;0.40;;;;;;;;;;6190043;23;20121;-89
2022/10/07 05:27:55;;;;;;;0.30;0.30;;;;;;;;;;6291693;22;20016;-90
2022/10/07 06:23:18;;;;;;;0.30;0.30;;;;;;;;;;6261979;22;20028;-89
2022/10/07 06:25:51;;;;;;;0.30;0.30;;;;;;;;;;6234403;23;20046;-88
2022/10/07 06:28:17;;;;;;;0.10;0.10;;;;;;;;;;6233903;23;20016;-90
2022/10/07 06:30:43;;;;;;;0.30;0.30;;;;;;;;;;6234267;23;20028;-90
2022/10/07 06:33:09;;;;;;;0.30;0.30;;;;;;;;;;6235810;23;20012;-89
2022/10/07 06:35:35;;;;;;;0.30;0.30;;;;;;;;;;6236358;23;20068;-90
2022/10/07 06:38:01;;;;;;;0.20;0.20;;;;;;;;;;6236083;23;20016;-89
2022/10/07 06:40:27;;;;;;;0.20;0.20;;;;;;;;;;6236275;23;20012;-89
2022/10/07 06:42:53;;;;;;;0.30;0.30;;;;;;;;;;6237919;23;20042;-91
2022/10/07 06:45:20;;;;;;;0.30;0.30;;;;;;;;;;6237647;23;20023;-90
2022/10/07 06:47:46;;;;;;;0.30;0.30;;;;;;;;;;6237027;23;20438;-90
2022/10/07 06:50:15;;;;;;;0.35;0.35;;;;;;;;;;6237977;23;20046;-91
2022/10/07 06:52:42;;;;;;;0.25;0.25;;;;;;;;;;6237007;23;20027;-91
2022/10/07 06:55:08;;;;;;;0.20;0.20;;;;;;;;;;6236582;23;20020;-90
2022/10/07 06:57:35;;;;;;;0.20;0.20;;;;;;;;;;6236876;23;20020;-90
2022/10/07 07:00:01;;;;;;;0.30;0.30;;;;;;;;;;6237358;23;20050;-90
2022/10/07 07:02:29;;;;;;;0.20;0.20;;;;;;;;;;6228490;22;20017;-91
2022/10/07 07:04:56;;;;;;;0.17;0.17;;;;;;;;;;6231888;23;20013;-91
2022/10/07 07:07:23;;;;;;;0.30;0.30;;;;;;;;;;6206222;23;20023;-91
2022/10/07 07:09:50;;;;;;;0.30;0.30;;;;;;;;;;6205823;23;20469;-89
2022/10/07 07:12:16;;;;;;;0.30;0.30;;;;;;;;;;6205696;23;20024;-91
2022/10/07 07:14:43;;;;;;;0.20;0.20;;;;;;;;;;6206316;23;20020;-90
2022/10/07 07:17:09;;;;;;;0.30;0.30;;;;;;;;;;6205564;23;20021;-91
2022/10/07 07:19:35;;;;;;;0.20;0.20;;;;;;;;;;6205251;23;20021;-90
2022/10/07 07:22:02;;;;;;;0.17;0.17;;;;;;;;;;6206221;23;20020;-91
2022/10/07 07:24:28;;;;;;;0.30;0.30;;;;;;;;;;6206378;23;20012;-91
2022/10/07 07:26:54;;;;;;;0.20;0.20;;;;;;;;;;6206046;23;20021;-90
2022/10/07 07:29:20;;;;;;;0.30;0.30;;;;;;;;;;6206616;23;20047;-90
2022/10/07 07:31:48;;;;;;;0.20;0.20;;;;;;;;;;6209111;23;20017;-90
2022/10/07 07:34:14;;;;;;;0.20;0.20;;;;;;;;;;6232584;23;20024;-90
2022/10/07 07:36:45;;;;;;;0.20;0.20;;;;;;;;;;6207011;23;20012;-91
2022/10/07 07:39:25;;;;;;;;;;;;;;;;;;;;;
2022/10/07 07:42:29;;;;;;;0.30;0.30;;;;;;;;;;6148998;23;20365;-92
2022/10/07 07:44:57;;;;;;;;;;;;;;;;;;6103498;23;20017;-91
2022/10/07 07:47:23;;;;;;;0.40;0.40;;;;;;;;;;6205419;23;19912;-91
2022/10/07 07:49:49;;;;;;;0.30;0.30;;;;;;;;;;6206364;23;20072;-91
2022/10/07 07:52:15;;;;;;;0.30;0.30;;;;;;;;;;6207848;23;20024;-90
2022/10/07 07:54:42;;;;;;;0.20;0.20;;;;;;;;;;6205853;23;20004;-91
2022/10/07 07:57:09;;;;;;;0.20;0.20;;;;;;;;;;6207150;23;20021;-92
2022/10/07 07:59:36;;;;;;;0.30;0.30;;;;;;;;;;6206089;23;20020;-91
2022/10/07 08:02:03;;;;;;;0.20;0.20;;;;;;;;;;6210179;23;20040;-90
2022/10/07 08:04:29;;;;;;;0.20;0.20;;;;;;;;;;6209715;23;20012;-88
2022/10/07 08:06:55;;;;;;;0.30;0.30;;;;;;;;;;6205865;23;20016;-88
2022/10/07 08:09:21;;;;;;;0.25;0.25;;;;;;;;;;6231261;23;20020;-88
2022/10/07 08:11:47;;;;;;;0.20;0.20;;;;;;;;;;6207472;23;20035;-88
2022/10/07 08:14:15;;;;;;;0.30;0.30;;;;;;;;;;6206239;23;20027;-88
2022/10/07 08:16:42;;;;;;;0.10;0.10;;;;;;;;;;6206262;23;20016;-89
2022/10/07 08:19:08;;;;;;;0.30;0.30;;;;;;;;;;6231781;23;20362;-88
2022/10/07 08:21:35;;;;;;;0.25;0.25;;;;;;;;;;6206701;23;20023;-89
2022/10/07 08:24:03;;;;;;;0.30;0.30;;;;;;;;;;6206141;23;20022;-89
2022/10/07 08:26:30;;;;;;;0.20;0.20;;;;;;;;;;6206388;23;20016;-90
2022/10/07 08:28:56;;;;;;;0.20;0.20;;;;;;;;;;6206324;23;20445;-89
2022/10/07 08:31:27;;;;;;;0.25;0.25;;;;;;;;;;6207140;23;20042;-89
2022/10/07 08:33:55;;;;;;;0.20;0.20;;;;;;;;;;6207127;23;20020;-89
2022/10/07 08:36:22;;;;;;;0.20;0.20;;;;;;;;;;6231781;23;20044;-90
2022/10/07 08:38:49;;;;;;;0.20;0.20;;;;;;;;;;6205953;23;20345;-89
2022/10/07 08:41:18;;;;;;;0.30;0.30;;;;;;;;;;6206562;23;20331;-89
2022/10/07 08:43:46;;;;;;;0.20;0.20;;;;;;;;;;6207134;23;20029;-90
2022/10/07 08:46:13;;;;;;;0.20;0.20;;;;;;;;;;6207403;23;20054;-89
2022/10/07 08:48:41;;;;;;;0.20;0.20;;;;;;;;;;6207113;23;20016;-89
2022/10/07 08:51:23;;;;;;;0.20;0.20;;;;;;;;;;6207855;23;20026;-89
2022/10/07 08:53:50;;;;;;;0.20;0.20;;;;;;;;;;6207773;23;20016;-89
2022/10/07 08:56:18;;;;;;;0.10;0.10;;;;;;;;;;6206929;23;20035;-89
2022/10/07 08:58:50;;;;;;;0.10;0.10;;;;;;;;;;6205952;23;20020;-89
2022/10/07 09:01:33;;;;;;;0.10;0.10;;;;;;;;;;6207323;23;20024;-89
2022/10/07 09:04:15;;;;;;;0.20;0.20;;;;;;;;;;6206814;23;20477;-89
2022/10/07 09:07:01;;;;;;;0.30;0.30;;;;;;;;;;6206178;23;20012;-89
2022/10/07 09:09:32;;;;;;;0.20;0.20;;;;;;;;;;6206634;23;20051;-89
2022/10/07 09:12:00;;;;;;;0.10;0.10;;;;;;;;;;6206496;23;20064;-89
2022/10/07 09:14:29;;;;;;;0.20;0.20;;;;;;;;;;6232041;23;20068;-88
2022/10/07 09:17:05;;;;;;;0.30;0.30;;;;;;;;;;6206938;23;20099;-88
2022/10/07 09:19:45;;;;;;;0.95;0.75;;;;;;;;;;6208116;23;20012;-89
2022/10/07 09:22:20;;;;;;;0.20;0.20;;;;;;;;;;6206565;23;20270;-89
2022/10/07 09:24:49;;;;;;;0.30;0.30;;;;;;;;;;6207643;23;20039;-89
2022/10/07 09:27:17;;;;;;;0.20;0.20;;;;;;;;;;6208084;23;20020;-89
2022/10/07 09:29:43;;;;;;;0.20;0.20;;;;;;;;;;6207566;23;20023;-89
2022/10/07 09:32:12;;;;;;;0.10;0.10;;;;;;;;;;6208070;23;20016;-89
2022/10/07 09:34:38;;;;;;;0.10;0.10;;;;;;;;;;6207692;23;20016;-90
2022/10/07 09:37:07;;;;;;;0.10;0.10;;;;;;;;;;6208581;23;20073;-89
2022/10/07 09:39:34;;;;;;;0.20;0.20;;;;;;;;;;6208733;23;20047;-89
2022/10/07 09:42:00;;;;;;;0.30;0.30;;;;;;;;;;6210074;23;20062;-90
2022/10/07 09:44:28;;;;;;;0.30;0.30;;;;;;;;;;6209249;23;20016;-89
2022/10/07 09:46:58;;;;;;;0.15;0.15;;;;;;;;;;6208940;23;20072;-89
2022/10/07 09:49:27;;;;;;;0.10;0.10;;;;;;;;;;6210019;23;20050;-89
2022/10/07 09:51:59;;;;;;;0.20;0.20;;;;;;;;;;6219169;22;20050;-89
2022/10/07 09:54:26;;;;;;;0.20;0.20;;;;;;;;;;6209414;23;20031;-89
2022/10/07 09:56:56;;;;;;;0.10;0.10;;;;;;;;;;6209376;23;20342;-89
2022/10/07 09:59:22;;;;;;;0.30;0.30;;;;;;;;;;6209009;23;20020;-89
2022/10/07 10:01:49;;;;;;;0.20;0.20;;;;;;;;;;6209513;23;20060;-90
2022/10/07 10:04:16;;;;;;;0.10;0.10;;;;;;;;;;6209646;23;20027;-89
2022/10/07 10:06:47;;;;;;;0.10;0.10;;;;;;;;;;6209890;23;20024;-89
2022/10/07 10:09:14;;;;;;;0.10;0.10;;;;;;;;;;6209601;23;20051;-88
2022/10/07 10:11:40;;;;;;;0.15;0.15;;;;;;;;;;6208879;23;20052;-88
2022/10/07 10:14:26;;;;;;;0.10;0.10;;;;;;;;;;6208758;23;20071;-88
2022/10/07 10:16:52;;;;;;;0.10;0.10;;;;;;;;;;6209002;23;20020;-88
2022/10/07 10:19:23;;;;;;;0.10;0.10;;;;;;;;;;6210302;23;20020;-89
2022/10/07 10:21:57;;;;;;;0.13;0.13;;;;;;;;;;6210613;23;20027;-89
2022/10/07 10:27:33;;;;;;;0.17;0.17;;;;;;;;;;6236620;23;20016;-89
2022/10/07 10:30:02;;;;;;;0.20;0.20;;;;;;;;;;6212014;23;20466;-89
2022/10/07 10:32:46;;;;;;;0.20;0.20;;;;;;;;;;6217592;23;20020;-91
2022/10/07 10:35:19;;;;;;;0.10;0.10;;;;;;;;;;6212006;23;20016;-90
2022/10/07 10:40:20;;;;;;;0.10;0.10;;;;;;;;;;6291328;22;20024;-89
2022/10/07 10:43:05;;;;;;;0.10;0.10;;;;;;;;;;6265867;22;20034;-89
2022/10/07 10:45:38;;;;;;;0.20;0.20;;;;;;;;;;6265084;22;20015;-89
2022/10/07 10:48:03;;;;;;;0.10;0.10;;;;;;;;;;6266123;22;20069;-88
2022/10/07 10:50:41;;;;;;;0.00;0.00;;;;;;;;;;6267575;22;20016;-90
2022/10/07 10:53:33;;;;;;;0.20;0.20;;;;;;;;;;6267585;22;20022;-90
2022/10/07 10:56:12;;;;;;;0.10;0.10;;;;;;;;;;6267181;22;20027;-90
2022/10/07 10:58:54;;;;;;;0.20;0.20;;;;;;;;;;6267757;22;20016;-90
2022/10/07 11:01:20;;;;;;;0.10;0.10;;;;;;;;;;6266494;22;20018;-90
2022/10/07 11:04:05;;;;;;;0.17;0.17;;;;;;;;;;6266915;22;20040;-89
2022/10/07 11:06:34;;;;;;;0.08;0.08;;;;;;;;;;6266519;22;20082;-89
2022/10/07 11:09:01;;;;;;;0.10;0.10;;;;;;;;;;6266254;22;20043;-88
2022/10/07 11:11:27;;;;;;;0.20;0.20;;;;;;;;;;6266352;22;20015;-89
2022/10/07 11:13:57;;;;;;;0.25;0.25;;;;;;;;;;6266055;22;20019;-89
2022/10/07 11:16:26;;;;;;;0.28;0.28;;;;;;;;;;6266187;22;20030;-90
2022/10/07 11:18:55;;;;;;;0.10;0.10;;;;;;;;;;6265372;22;20058;-90
2022/10/07 11:21:25;;;;;;;0.20;0.20;;;;;;;;;;6265751;22;20023;-89
2022/10/07 11:23:54;;;;;;;0.20;0.20;;;;;;;;;;6265442;22;20047;-90
2022/10/07 11:26:23;;;;;;;0.10;0.10;;;;;;;;;;6264534;22;20027;-90
2022/10/07 11:28:50;;;;;;;0.10;0.10;;;;;;;;;;6265169;22;20063;-89
2022/10/07 11:31:21;;;;;;;0.30;0.30;;;;;;;;;;6265954;22;20034;-90
2022/10/07 11:34:05;;;;;;;0.20;0.20;;;;;;;;;;6264892;22;20071;-89
2022/10/07 11:36:39;;;;;;;0.30;0.30;;;;;;;;;;6264977;22;20046;-90
2022/10/07 11:39:05;;;;;;;0.10;0.10;;;;;;;;;;6264116;22;20020;-88
2022/10/07 11:41:33;;;;;;;0.20;0.20;;;;;;;;;;6268531;22;20025;-90
2022/10/07 11:44:05;;;;;;;0.10;0.10;;;;;;;;;;6266299;22;20026;-90
2022/10/07 11:46:40;;;;;;;0.10;0.10;;;;;;;;;;6265609;22;20016;-90
2022/10/07 11:49:22;;;;;;;0.05;0.05;;;;;;;;;;6266879;22;20083;-91
2022/10/07 11:52:07;;;;;;;0.10;0.10;;;;;;;;;;6264837;22;20016;-90
2022/10/07 11:54:40;;;;;;;0.20;0.20;;;;;;;;;;6263899;22;20019;-90
2022/10/07 11:57:06;;;;;;;0.15;0.15;;;;;;;;;;6263683;22;20015;-90
2022/10/07 11:59:38;;;;;;;0.10;0.10;;;;;;;;;;6262901;22;20015;-90
2022/10/07 12:02:05;;;;;;;0.10;0.10;;;;;;;;;;6263769;22;20437;-89
2022/10/07 12:04:34;;;;;;;0.10;0.10;;;;;;;;;;6263627;22;20016;-88
2022/10/07 12:07:36;;;;;;;0.13;0.13;;;;;;;;;;6291662;22;20035;-89
2022/10/07 12:10:02;;;;;;;0.10;0.10;;;;;;;;;;6263927;22;20469;-89
2022/10/07 12:12:44;;;;;;;0.13;0.13;;;;;;;;;;6264239;22;20023;-89
2022/10/07 12:15:27;;;;;;;0.10;0.10;;;;;;;;;;6263887;22;20021;-89
2022/10/07 12:18:16;;;;;;;0.52;0.52;;;;;;;;;;6264785;22;20020;-92
2022/10/07 12:20:54;;;;;;;0.10;0.10;;;;;;;;;;6220563;22;20019;-89
2022/10/07 12:23:27;;;;;;;0.00;0.00;;;;;;;;;;6264218;22;20069;-90
2022/10/07 12:25:58;;;;;;;0.10;0.10;;;;;;;;;;6265679;22;20016;-91
2022/10/07 12:28:30;;;;;;;0.10;0.10;;;;;;;;;;6265294;22;20016;-91
2022/10/07 12:31:01;;;;;;;0.10;0.10;;;;;;;;;;6265314;22;20398;-91
2022/10/07 12:33:51;;;;;;;0.10;0.10;;;;;;;;;;6265573;22;20024;-91
2022/10/07 12:36:20;;;;;;;0.10;0.10;;;;;;;;;;6265451;22;20019;-90
2022/10/07 12:39:08;;;;;;;0.10;0.10;;;;;;;;;;6265472;22;20023;-91
2022/10/07 12:41:41;;;;;;;0.10;0.10;;;;;;;;;;6265528;22;20020;-90
2022/10/07 12:44:09;;;;;;;0.15;0.15;;;;;;;;;;6265216;22;20041;-90
2022/10/07 12:46:41;;;;;;;0.10;0.10;;;;;;;;;;6265207;22;20035;-90
2022/10/07 12:49:23;;;;;;;0.20;0.20;;;;;;;;;;6266225;22;20015;-90
2022/10/07 12:51:50;;;;;;;0.10;0.10;;;;;;;;;;6265538;22;20019;-92
2022/10/07 12:54:19;;;;;;;0.10;0.10;;;;;;;;;;6265232;22;20019;-91
2022/10/07 12:56:46;;;;;;;0.20;0.20;;;;;;;;;;6265921;22;20015;-91
2022/10/07 13:02:18;;;;;;;0.10;0.10;;;;;;;;;;6264211;22;20027;-90
2022/10/07 13:04:50;;;;;;;0.10;0.10;;;;;;;;;;6265309;22;20049;-89
2022/10/07 13:07:25;;;;;;;0.10;0.10;;;;;;;;;;6264839;22;20076;-90
2022/10/07 13:10:10;;;;;;;0.10;0.10;;;;;;;;;;6264477;22;20022;-90
2022/10/07 13:12:39;;;;;;;0.10;0.10;;;;;;;;;;6267500;22;20042;-90
2022/10/07 13:15:05;;;;;;;0.20;0.20;;;;;;;;;;6266930;22;20019;-90
2022/10/07 13:17:41;;;;;;;0.10;0.10;;;;;;;;;;6267304;22;20027;-90
2022/10/07 13:20:14;;;;;;;0.10;0.10;;;;;;;;;;6267202;22;20016;-90
2022/10/07 13:22:47;;;;;;;0.30;0.30;;;;;;;;;;6267232;22;20075;-90
2022/10/07 13:25:14;;;;;;;0.10;0.10;;;;;;;;;;6267283;22;20016;-91
2022/10/07 13:27:41;;;;;;;0.10;0.10;;;;;;;;;;6267125;22;20018;-89
2022/10/07 13:30:07;;;;;;;0.10;0.10;;;;;;;;;;6266292;22;20016;-92
2022/10/07 13:32:34;;;;;;;0.10;0.10;;;;;;;;;;6266288;22;20023;-90
2022/10/07 13:35:20;;;;;;;0.10;0.10;;;;;;;;;;6266769;22;20019;-90
2022/10/07 13:37:46;;;;;;;;;;;;;;;;;;6266924;22;20026;-91
2022/10/07 13:40:24;;;;;;;0.10;0.10;;;;;;;;;;6240451;22;19950;-90
2022/10/07 13:42:54;;;;;;;0.15;0.15;;;;;;;;;;6267035;22;20258;-91
2022/10/07 13:45:21;;;;;;;0.10;0.10;;;;;;;;;;6266649;22;20040;-90
2022/10/07 13:47:47;;;;;;;0.30;0.30;;;;;;;;;;6266773;22;20067;-91
2022/10/07 13:50:18;;;;;;;0.17;0.17;;;;;;;;;;6266512;22;20098;-90
2022/10/07 13:52:46;;;;;;;0.20;0.20;;;;;;;;;;6266813;22;20020;-90
2022/10/07 13:55:28;;;;;;;0.20;0.20;;;;;;;;;;6266799;22;20038;-90
2022/10/07 13:57:56;;;;;;;0.20;0.20;;;;;;;;;;6266983;22;20026;-91
2022/10/07 14:00:25;;;;;;;0.10;0.10;;;;;;;;;;6265675;22;20021;-90
2022/10/07 14:02:52;;;;;;;0.10;0.10;;;;;;;;;;6264552;22;20020;-90
2022/10/07 14:05:18;;;;;;;0.20;0.20;;;;;;;;;;6215723;22;20019;-90
2022/10/07 14:07:45;;;;;;;0.20;0.20;;;;;;;;;;6266833;22;20008;-90
2022/10/07 14:10:12;;;;;;;0.10;0.10;;;;;;;;;;6267059;22;20015;-91
2022/10/07 14:12:55;;;;;;;0.20;0.20;;;;;;;;;;6267580;22;20558;-90
2022/10/07 14:15:28;;;;;;;0.10;0.10;;;;;;;;;;6215827;22;20027;-90
2022/10/07 14:18:14;;;;;;;0.25;0.25;;;;;;;;;;6266740;22;20019;-90
2022/10/07 14:20:44;;;;;;;0.30;0.30;;;;;;;;;;6240531;22;20051;-90
2022/10/07 14:23:18;;;;;;;0.03;0.03;;;;;;;;;;6265384;22;20026;-89
2022/10/07 14:25:47;;;;;;;0.10;0.10;;;;;;;;;;6266387;22;20042;-91
2022/10/07 14:28:18;;;;;;;0.10;0.10;;;;;;;;;;6266281;22;20246;-90
2022/10/07 14:36:31;;;;;;;0.10;0.10;;;;;;;;;;6266455;22;20019;-90
2022/10/07 14:39:02;;;;;;;0.17;0.17;;;;;;;;;;6266408;22;20077;-90
2022/10/07 14:41:28;;;;;;;0.20;0.20;;;;;;;;;;6265759;22;20490;-90
2022/10/07 14:43:58;;;;;;;0.10;0.10;;;;;;;;;;6266400;22;20026;-90
2022/10/07 14:46:26;;;;;;;0.20;0.20;;;;;;;;;;6216228;22;20016;-91
2022/10/07 14:48:53;;;;;;;0.10;0.10;;;;;;;;;;6266794;22;20016;-90
2022/10/07 14:51:25;;;;;;;0.10;0.10;;;;;;;;;;6268118;22;20041;-91
2022/10/07 14:54:04;;;;;;;0.10;0.10;;;;;;;;;;6268127;22;20020;-90
2022/10/07 14:56:32;;;;;;;0.20;0.20;;;;;;;;;;6268540;22;20067;-91
2022/10/07 14:59:01;;;;;;;0.10;0.10;;;;;;;;;;6293691;22;20026;-90
2022/10/07 15:01:28;;;;;;;0.10;0.10;;;;;;;;;;6267258;22;20023;-91
2022/10/07 15:03:55;;;;;;;0.10;0.10;;;;;;;;;;6266910;22;20019;-91
2022/10/07 15:06:21;;;;;;;0.10;0.10;;;;;;;;;;6265870;22;20357;-90
2022/10/07 15:08:48;;;;;;;0.10;0.10;;;;;;;;;;6266011;22;20015;-90
2022/10/07 15:11:19;;;;;;;0.20;0.20;;;;;;;;;;6265500;22;20012;-91
2022/10/07 15:13:46;;;;;;;0.15;0.15;;;;;;;;;;6267921;22;20019;-91
2022/10/07 15:16:14;;;;;;;0.10;0.10;;;;;;;;;;6266946;22;20077;-90
2022/10/07 15:18:40;;;;;;;0.10;0.10;;;;;;;;;;6266643;22;20047;-91
2022/10/07 15:21:07;;;;;;;0.10;0.10;;;;;;;;;;6266935;22;20094;-90
2022/10/07 15:23:33;;;;;;;0.10;0.10;;;;;;;;;;6266955;22;20020;-91
2022/10/07 15:26:01;;;;;;;0.20;0.20;;;;;;;;;;6266668;22;20062;-91
2022/10/07 15:28:28;;;;;;;0.13;0.13;;;;;;;;;;6266069;22;20015;-90
2022/10/07 15:31:09;;;;;;;0.00;0.00;;;;;;;;;;6264638;22;20011;-90
2022/10/07 15:33:36;;;;;;;0.10;0.10;;;;;;;;;;6266178;22;20025;-91
2022/10/07 15:36:03;;;;;;;0.20;0.20;;;;;;;;;;6266797;22;20026;-90
2022/10/07 15:38:30;;;;;;;0.08;0.08;;;;;;;;;;6266958;22;20027;-91
2022/10/07 15:40:57;;;;;;;0.10;0.10;;;;;;;;;;6265362;22;20058;-90
2022/10/07 15:43:23;;;;;;;0.10;0.10;;;;;;;;;;6267419;22;20023;-91
2022/10/07 15:45:50;;;;;;;0.13;0.13;;;;;;;;;;6266582;22;20015;-90
2022/10/07 15:48:21;;;;;;;0.10;0.10;;;;;;;;;;6266314;22;20064;-90
2022/10/07 15:50:48;;;;;;;0.20;0.20;;;;;;;;;;6265979;22;20063;-90
2022/10/07 15:53:15;;;;;;;0.10;0.10;;;;;;;;;;6266661;22;20019;-90
2022/10/07 15:55:53;;;;;;;0.17;0.17;;;;;;;;;;6265552;22;20030;-91
2022/10/07 15:58:19;;;;;;;0.10;0.10;;;;;;;;;;6265806;22;20024;-91
2022/10/07 16:00:58;;;;;;;0.10;0.10;;;;;;;;;;6265363;22;20019;-90
2022/10/07 16:03:25;;;;;;;0.10;0.10;;;;;;;;;;6265226;22;20094;-90
2022/10/07 16:05:55;;;;;;;0.10;0.10;;;;;;;;;;6266174;22;20016;-88
2022/10/07 16:08:21;;;;;;;0.10;0.10;;;;;;;;;;6266292;22;20046;-90
2022/10/07 16:10:47;;;;;;;0.20;0.20;;;;;;;;;;6266106;22;20016;-89
2022/10/07 16:13:13;;;;;;;0.10;0.10;;;;;;;;;;6266216;22;20104;-89
2022/10/07 16:15:39;;;;;;;0.00;0.00;;;;;;;;;;6265777;22;20024;-90
2022/10/07 16:18:06;;;;;;;0.20;0.20;;;;;;;;;;6266146;22;20019;-90
2022/10/07 16:20:32;;;;;;;0.10;0.10;;;;;;;;;;6215099;22;20019;-89
2022/10/07 16:22:58;;;;;;;0.13;0.13;;;;;;;;;;6266447;22;20077;-89
2022/10/07 16:25:24;;;;;;;0.20;0.20;;;;;;;;;;6290071;22;20016;-89
2022/10/07 16:30:42;;;;;;;0.10;0.10;;;;;;;;;;6265319;22;20015;-89
2022/10/07 16:33:08;;;;;;;0.10;0.10;;;;;;;;;;6266120;22;20045;-90
2022/10/07 16:35:35;;;;;;;0.10;0.10;;;;;;;;;;6266592;22;20547;-90
2022/10/07 16:38:04;;;;;;;0.10;0.10;;;;;;;;;;6267116;22;20019;-89
2022/10/07 16:40:30;;;;;;;0.10;0.10;;;;;;;;;;6265315;22;20314;-90
2022/10/07 16:42:58;;;;;;;0.17;0.17;;;;;;;;;;6265190;22;20038;-89
2022/10/07 16:45:24;;;;;;;0.10;0.10;;;;;;;;;;6265104;22;20023;-89
2022/10/07 16:47:57;;;;;;;0.20;0.20;;;;;;;;;;6265540;22;20015;-90
2022/10/07 16:50:23;;;;;;;0.13;0.13;;;;;;;;;;6264927;22;20015;-90
2022/10/07 16:52:49;;;;;;;0.10;0.10;;;;;;;;;;6265046;22;20020;-90
2022/10/07 16:55:16;;;;;;;0.10;0.10;;;;;;;;;;6264508;22;20020;-90
2022/10/07 16:57:43;;;;;;;0.10;0.10;;;;;;;;;;6265436;22;20027;-90
2022/10/07 17:00:09;;;;;;;0.10;0.10;;;;;;;;;;6265356;22;20023;-90
2022/10/07 17:06:20;;;;;;;0.10;0.10;;;;;;;;;;6301728;22;20294;-89
2022/10/07 17:08:47;;;;;;;0.10;0.10;;;;;;;;;;6266704;22;20024;-90
2022/10/07 17:11:30;;;;;;;0.10;0.10;;;;;;;;;;6266673;22;20016;-90
2022/10/07 17:20:58;;;;;;;0.10;0.10;;;;;;;;;;6222082;23;20072;-89
2022/10/07 17:23:26;;;;;;;0.10;0.10;;;;;;;;;;6191521;22;20049;-90
2022/10/07 17:26:20;;;;;;;0.20;0.20;;;;;;;;;;6276194;22;20075;-91
2022/10/07 17:28:49;;;;;;;0.10;0.10;;;;;;;;;;6282455;22;20050;-90
2022/10/07 17:34:33;;;;;;;0.10;0.10;;;;;;;;;;6313173;22;20050;-91
2022/10/07 17:37:08;;;;;;;0.20;0.20;;;;;;;;;;6299084;22;20000;-91
2022/10/07 18:35:53;;;;;;;0.28;0.28;;;;;;;;;;6262306;22;20024;-90
